sensor_id;sensor_type;location;lat;lon;timestamp;P1;durP1;ratioP1;P2;durP2;ratioP2
11731;SDS011;5922;53.734;10.258;2023-05-10T00:01:50;3.50;;;3.07;;
11731;SDS011;5922;53.734;10.258;2023-05-10T00:04:17;4.93;;;3.23;;
11731;SDS011;5922;53.734;10.258;2023-05-10T00:06:46;5.33;;;3.50;;
11731;SDS011;5922;53.734;10.258;2023-05-10T00:09:13;8.40;;;3.03;;
11731;SDS011;5922;53.734;10.258;2023-05-10T00:11:41;7.17;;;3.20;;
11731;SDS011;5922;53.734;10.258;2023-05-10T00:14:08;6.53;;;4.00;;
11731;SDS011;5922;53.734;10.258;2023-05-10T00:16:35;8.87;;;3.40;;
11731;SDS011;5922;53.734;10.258;2023-05-10T00:19:02;4.90;;;3.20;;
11731;SDS011;5922;53.734;10.258;2023-05-10T00:21:30;4.87;;;3.67;;
11731;SDS011;5922;53.734;10.258;2023-05-10T00:24:00;7.17;;;3.57;;
11731;SDS011;5922;53.734;10.258;2023-05-10T00:26:27;5.67;;;3.27;;
11731;SDS011;5922;53.734;10.258;2023-05-10T00:28:54;6.77;;;3.27;;
11731;SDS011;5922;53.734;10.258;2023-05-10T00:31:22;5.07;;;3.60;;
11731;SDS011;5922;53.734;10.258;2023-05-10T00:33:49;4.23;;;3.23;;
11731;SDS011;5922;53.734;10.258;2023-05-10T00:36:16;6.37;;;3.13;;
11731;SDS011;5922;53.734;10.258;2023-05-10T00:38:43;4.00;;;3.50;;
11731;SDS011;5922;53.734;10.258;2023-05-10T00:41:12;10.13;;;3.63;;
11731;SDS011;5922;53.734;10.258;2023-05-10T00:43:40;5.83;;;3.30;;
11731;SDS011;5922;53.734;10.258;2023-05-10T00:46:07;6.33;;;3.57;;
11731;SDS011;5922;53.734;10.258;2023-05-10T00:48:35;8.30;;;3.50;;
11731;SDS011;5922;53.734;10.258;2023-05-10T00:51:02;3.50;;;3.20;;
11731;SDS011;5922;53.734;10.258;2023-05-10T00:53:31;7.13;;;3.10;;
11731;SDS011;5922;53.734;10.258;2023-05-10T00:55:58;5.47;;;2.93;;
11731;SDS011;5922;53.734;10.258;2023-05-10T00:58:27;5.70;;;3.20;;
11731;SDS011;5922;53.734;10.258;2023-05-10T01:00:56;4.30;;;3.47;;
11731;SDS011;5922;53.734;10.258;2023-05-10T01:03:23;8.77;;;3.50;;
11731;SDS011;5922;53.734;10.258;2023-05-10T01:05:51;7.13;;;3.77;;
11731;SDS011;5922;53.734;10.258;2023-05-10T01:08:18;4.17;;;3.30;;
11731;SDS011;5922;53.734;10.258;2023-05-10T01:10:46;9.33;;;3.90;;
11731;SDS011;5922;53.734;10.258;2023-05-10T01:13:15;7.50;;;3.50;;
11731;SDS011;5922;53.734;10.258;2023-05-10T01:15:47;8.60;;;3.67;;
11731;SDS011;5922;53.734;10.258;2023-05-10T01:18:14;5.03;;;3.57;;
11731;SDS011;5922;53.734;10.258;2023-05-10T01:20:43;5.23;;;3.40;;
11731;SDS011;5922;53.734;10.258;2023-05-10T01:23:30;5.00;;;3.50;;
11731;SDS011;5922;53.734;10.258;2023-05-10T01:26:07;6.20;;;3.60;;
11731;SDS011;5922;53.734;10.258;2023-05-10T01:31:37;6.13;;;3.80;;
11731;SDS011;5922;53.734;10.258;2023-05-10T01:34:08;6.23;;;3.00;;
11731;SDS011;5922;53.734;10.258;2023-05-10T01:36:38;5.03;;;3.90;;
11731;SDS011;5922;53.734;10.258;2023-05-10T01:39:09;3.63;;;3.33;;
11731;SDS011;5922;53.734;10.258;2023-05-10T01:41:39;4.50;;;3.27;;
11731;SDS011;5922;53.734;10.258;2023-05-10T01:44:10;9.70;;;3.70;;
11731;SDS011;5922;53.734;10.258;2023-05-10T01:46:40;8.40;;;3.97;;
11731;SDS011;5922;53.734;10.258;2023-05-10T01:49:09;5.57;;;3.50;;
11731;SDS011;5922;53.734;10.258;2023-05-10T01:51:39;6.30;;;3.47;;
11731;SDS011;5922;53.734;10.258;2023-05-10T01:54:07;4.63;;;3.40;;
11731;SDS011;5922;53.734;10.258;2023-05-10T01:56:36;6.90;;;4.23;;
11731;SDS011;5922;53.734;10.258;2023-05-10T01:59:05;5.50;;;3.40;;
11731;SDS011;5922;53.734;10.258;2023-05-10T02:01:35;7.33;;;3.30;;
11731;SDS011;5922;53.734;10.258;2023-05-10T02:04:03;4.60;;;3.60;;
11731;SDS011;5922;53.734;10.258;2023-05-10T02:06:33;8.53;;;3.27;;
11731;SDS011;5922;53.734;10.258;2023-05-10T02:09:01;3.40;;;3.10;;
11731;SDS011;5922;53.734;10.258;2023-05-10T02:11:28;6.47;;;3.40;;
11731;SDS011;5922;53.734;10.258;2023-05-10T02:13:56;5.10;;;3.10;;
11731;SDS011;5922;53.734;10.258;2023-05-10T02:16:26;3.90;;;3.50;;
11731;SDS011;5922;53.734;10.258;2023-05-10T02:18:55;6.60;;;3.30;;
11731;SDS011;5922;53.734;10.258;2023-05-10T02:21:23;4.60;;;3.33;;
11731;SDS011;5922;53.734;10.258;2023-05-10T02:23:52;6.57;;;3.90;;
11731;SDS011;5922;53.734;10.258;2023-05-10T02:26:20;4.13;;;3.73;;
11731;SDS011;5922;53.734;10.258;2023-05-10T02:28:48;4.53;;;3.37;;
11731;SDS011;5922;53.734;10.258;2023-05-10T02:31:16;6.23;;;3.30;;
11731;SDS011;5922;53.734;10.258;2023-05-10T02:33:44;4.97;;;3.40;;
11731;SDS011;5922;53.734;10.258;2023-05-10T02:36:11;4.63;;;3.57;;
11731;SDS011;5922;53.734;10.258;2023-05-10T02:38:39;5.37;;;3.23;;
11731;SDS011;5922;53.734;10.258;2023-05-10T02:41:08;4.67;;;3.37;;
11731;SDS011;5922;53.734;10.258;2023-05-10T02:43:36;4.20;;;3.40;;
11731;SDS011;5922;53.734;10.258;2023-05-10T02:46:05;6.37;;;3.67;;
11731;SDS011;5922;53.734;10.258;2023-05-10T02:48:32;3.73;;;3.37;;
11731;SDS011;5922;53.734;10.258;2023-05-10T02:51:00;5.40;;;3.97;;
11731;SDS011;5922;53.734;10.258;2023-05-10T02:53:30;5.33;;;3.70;;
11731;SDS011;5922;53.734;10.258;2023-05-10T02:55:58;7.07;;;3.57;;
11731;SDS011;5922;53.734;10.258;2023-05-10T02:58:30;8.97;;;3.70;;
11731;SDS011;5922;53.734;10.258;2023-05-10T03:00:57;3.83;;;3.43;;
11731;SDS011;5922;53.734;10.258;2023-05-10T03:03:24;4.00;;;3.50;;
11731;SDS011;5922;53.734;10.258;2023-05-10T03:05:52;5.43;;;3.77;;
11731;SDS011;5922;53.734;10.258;2023-05-10T03:08:21;6.03;;;3.43;;
11731;SDS011;5922;53.734;10.258;2023-05-10T03:10:53;5.83;;;3.53;;
11731;SDS011;5922;53.734;10.258;2023-05-10T03:13:25;8.67;;;4.10;;
11731;SDS011;5922;53.734;10.258;2023-05-10T03:15:59;5.73;;;3.90;;
11731;SDS011;5922;53.734;10.258;2023-05-10T03:18:33;8.03;;;3.47;;
11731;SDS011;5922;53.734;10.258;2023-05-10T03:21:04;4.50;;;3.90;;
11731;SDS011;5922;53.734;10.258;2023-05-10T03:23:34;7.00;;;4.30;;
11731;SDS011;5922;53.734;10.258;2023-05-10T03:26:01;5.27;;;3.93;;
11731;SDS011;5922;53.734;10.258;2023-05-10T03:28:29;7.27;;;3.83;;
11731;SDS011;5922;53.734;10.258;2023-05-10T03:30:59;4.50;;;3.77;;
11731;SDS011;5922;53.734;10.258;2023-05-10T03:33:26;7.00;;;4.20;;
11731;SDS011;5922;53.734;10.258;2023-05-10T03:35:53;6.23;;;4.13;;
11731;SDS011;5922;53.734;10.258;2023-05-10T03:38:21;9.73;;;3.83;;
11731;SDS011;5922;53.734;10.258;2023-05-10T03:40:49;4.83;;;3.47;;
11731;SDS011;5922;53.734;10.258;2023-05-10T03:43:16;8.30;;;3.77;;
11731;SDS011;5922;53.734;10.258;2023-05-10T03:45:43;4.10;;;3.50;;
11731;SDS011;5922;53.734;10.258;2023-05-10T03:48:12;5.27;;;3.73;;
11731;SDS011;5922;53.734;10.258;2023-05-10T03:50:39;5.47;;;3.73;;
11731;SDS011;5922;53.734;10.258;2023-05-10T03:53:07;5.13;;;4.20;;
11731;SDS011;5922;53.734;10.258;2023-05-10T03:55:35;5.60;;;3.60;;
11731;SDS011;5922;53.734;10.258;2023-05-10T03:58:02;5.13;;;3.60;;
11731;SDS011;5922;53.734;10.258;2023-05-10T04:00:29;7.53;;;3.63;;
11731;SDS011;5922;53.734;10.258;2023-05-10T04:02:57;5.10;;;3.80;;
11731;SDS011;5922;53.734;10.258;2023-05-10T04:05:26;8.43;;;4.00;;
11731;SDS011;5922;53.734;10.258;2023-05-10T04:07:53;4.50;;;3.53;;
11731;SDS011;5922;53.734;10.258;2023-05-10T04:10:20;4.77;;;3.80;;
11731;SDS011;5922;53.734;10.258;2023-05-10T04:12:48;3.57;;;3.27;;
11731;SDS011;5922;53.734;10.258;2023-05-10T04:15:15;9.20;;;3.87;;
11731;SDS011;5922;53.734;10.258;2023-05-10T04:17:42;9.43;;;4.10;;
11731;SDS011;5922;53.734;10.258;2023-05-10T04:20:10;5.57;;;3.60;;
11731;SDS011;5922;53.734;10.258;2023-05-10T04:22:39;6.87;;;3.70;;
11731;SDS011;5922;53.734;10.258;2023-05-10T04:25:07;5.27;;;4.10;;
11731;SDS011;5922;53.734;10.258;2023-05-10T04:27:34;4.47;;;3.93;;
11731;SDS011;5922;53.734;10.258;2023-05-10T04:30:02;8.77;;;4.00;;
11731;SDS011;5922;53.734;10.258;2023-05-10T04:32:30;4.57;;;3.80;;
11731;SDS011;5922;53.734;10.258;2023-05-10T04:34:57;4.77;;;4.10;;
11731;SDS011;5922;53.734;10.258;2023-05-10T04:37:24;5.13;;;3.67;;
11731;SDS011;5922;53.734;10.258;2023-05-10T04:39:53;5.87;;;4.17;;
11731;SDS011;5922;53.734;10.258;2023-05-10T04:42:21;5.40;;;3.53;;
11731;SDS011;5922;53.734;10.258;2023-05-10T04:44:48;4.23;;;3.53;;
11731;SDS011;5922;53.734;10.258;2023-05-10T04:47:16;4.30;;;3.87;;
11731;SDS011;5922;53.734;10.258;2023-05-10T04:49:44;5.43;;;3.50;;
11731;SDS011;5922;53.734;10.258;2023-05-10T04:52:11;8.07;;;4.07;;
11731;SDS011;5922;53.734;10.258;2023-05-10T04:54:40;7.13;;;4.23;;
11731;SDS011;5922;53.734;10.258;2023-05-10T04:57:08;5.27;;;4.10;;
11731;SDS011;5922;53.734;10.258;2023-05-10T04:59:36;5.90;;;3.60;;
11731;SDS011;5922;53.734;10.258;2023-05-10T05:02:03;3.83;;;3.43;;
11731;SDS011;5922;53.734;10.258;2023-05-10T05:04:31;4.47;;;3.90;;
11731;SDS011;5922;53.734;10.258;2023-05-10T05:06:59;6.67;;;4.47;;
11731;SDS011;5922;53.734;10.258;2023-05-10T05:09:26;6.67;;;4.17;;
11731;SDS011;5922;53.734;10.258;2023-05-10T05:11:53;4.77;;;4.03;;
11731;SDS011;5922;53.734;10.258;2023-05-10T05:14:22;5.80;;;4.10;;
11731;SDS011;5922;53.734;10.258;2023-05-10T05:16:50;4.63;;;3.67;;
11731;SDS011;5922;53.734;10.258;2023-05-10T05:19:17;8.90;;;3.87;;
11731;SDS011;5922;53.734;10.258;2023-05-10T05:21:44;4.33;;;3.93;;
11731;SDS011;5922;53.734;10.258;2023-05-10T05:24:11;7.50;;;4.10;;
11731;SDS011;5922;53.734;10.258;2023-05-10T05:26:39;5.73;;;3.90;;
11731;SDS011;5922;53.734;10.258;2023-05-10T05:29:07;5.33;;;4.27;;
11731;SDS011;5922;53.734;10.258;2023-05-10T05:31:35;6.53;;;4.13;;
11731;SDS011;5922;53.734;10.258;2023-05-10T05:34:03;7.00;;;4.40;;
11731;SDS011;5922;53.734;10.258;2023-05-10T05:36:30;6.87;;;4.40;;
11731;SDS011;5922;53.734;10.258;2023-05-10T05:38:57;6.43;;;4.00;;
11731;SDS011;5922;53.734;10.258;2023-05-10T05:41:25;5.03;;;4.27;;
11731;SDS011;5922;53.734;10.258;2023-05-10T05:43:52;5.20;;;4.17;;
11731;SDS011;5922;53.734;10.258;2023-05-10T05:46:19;5.07;;;4.30;;
11731;SDS011;5922;53.734;10.258;2023-05-10T05:48:48;5.43;;;4.17;;
11731;SDS011;5922;53.734;10.258;2023-05-10T05:51:15;5.87;;;4.37;;
11731;SDS011;5922;53.734;10.258;2023-05-10T05:53:42;5.67;;;3.87;;
11731;SDS011;5922;53.734;10.258;2023-05-10T05:56:10;4.43;;;3.93;;
11731;SDS011;5922;53.734;10.258;2023-05-10T05:58:37;5.77;;;4.07;;
11731;SDS011;5922;53.734;10.258;2023-05-10T06:01:04;5.63;;;3.80;;
11731;SDS011;5922;53.734;10.258;2023-05-10T06:03:32;6.40;;;4.27;;
11731;SDS011;5922;53.734;10.258;2023-05-10T06:06:02;5.10;;;4.17;;
11731;SDS011;5922;53.734;10.258;2023-05-10T06:08:29;4.63;;;3.57;;
11731;SDS011;5922;53.734;10.258;2023-05-10T06:10:56;10.70;;;4.43;;
11731;SDS011;5922;53.734;10.258;2023-05-10T06:13:23;5.70;;;3.97;;
11731;SDS011;5922;53.734;10.258;2023-05-10T06:15:53;4.33;;;3.90;;
11731;SDS011;5922;53.734;10.258;2023-05-10T06:18:21;4.83;;;3.90;;
11731;SDS011;5922;53.734;10.258;2023-05-10T06:20:49;8.40;;;4.63;;
11731;SDS011;5922;53.734;10.258;2023-05-10T06:23:18;4.67;;;4.07;;
11731;SDS011;5922;53.734;10.258;2023-05-10T06:25:45;4.47;;;4.07;;
11731;SDS011;5922;53.734;10.258;2023-05-10T06:28:12;6.10;;;4.40;;
11731;SDS011;5922;53.734;10.258;2023-05-10T06:30:40;8.23;;;3.83;;
11731;SDS011;5922;53.734;10.258;2023-05-10T06:33:07;8.00;;;4.23;;
11731;SDS011;5922;53.734;10.258;2023-05-10T06:35:35;4.20;;;3.80;;
11731;SDS011;5922;53.734;10.258;2023-05-10T06:38:02;6.23;;;4.07;;
11731;SDS011;5922;53.734;10.258;2023-05-10T06:40:31;5.37;;;3.90;;
11731;SDS011;5922;53.734;10.258;2023-05-10T06:42:59;6.07;;;4.00;;
11731;SDS011;5922;53.734;10.258;2023-05-10T06:45:26;5.73;;;3.63;;
11731;SDS011;5922;53.734;10.258;2023-05-10T06:47:54;4.23;;;3.83;;
11731;SDS011;5922;53.734;10.258;2023-05-10T06:50:21;4.93;;;4.00;;
11731;SDS011;5922;53.734;10.258;2023-05-10T06:52:48;5.73;;;4.30;;
11731;SDS011;5922;53.734;10.258;2023-05-10T06:55:15;4.80;;;4.10;;
11731;SDS011;5922;53.734;10.258;2023-05-10T06:57:44;5.47;;;3.50;;
11731;SDS011;5922;53.734;10.258;2023-05-10T07:00:13;4.43;;;3.93;;
11731;SDS011;5922;53.734;10.258;2023-05-10T07:02:40;4.30;;;3.90;;
11731;SDS011;5922;53.734;10.258;2023-05-10T07:05:08;9.03;;;4.07;;
11731;SDS011;5922;53.734;10.258;2023-05-10T07:07:35;11.47;;;4.17;;
11731;SDS011;5922;53.734;10.258;2023-05-10T07:10:03;11.23;;;4.00;;
11731;SDS011;5922;53.734;10.258;2023-05-10T07:12:30;4.73;;;4.33;;
11731;SDS011;5922;53.734;10.258;2023-05-10T07:14:59;6.77;;;3.90;;
11731;SDS011;5922;53.734;10.258;2023-05-10T07:17:26;4.13;;;3.73;;
11731;SDS011;5922;53.734;10.258;2023-05-10T07:19:53;6.13;;;4.10;;
11731;SDS011;5922;53.734;10.258;2023-05-10T07:22:21;5.37;;;4.20;;
11731;SDS011;5922;53.734;10.258;2023-05-10T07:24:48;6.83;;;4.33;;
11731;SDS011;5922;53.734;10.258;2023-05-10T07:27:15;6.13;;;4.40;;
11731;SDS011;5922;53.734;10.258;2023-05-10T07:29:43;4.17;;;3.70;;
11731;SDS011;5922;53.734;10.258;2023-05-10T07:32:11;9.70;;;4.53;;
11731;SDS011;5922;53.734;10.258;2023-05-10T07:34:39;5.53;;;4.63;;
11731;SDS011;5922;53.734;10.258;2023-05-10T07:37:06;5.97;;;3.80;;
11731;SDS011;5922;53.734;10.258;2023-05-10T07:39:34;6.83;;;4.27;;
11731;SDS011;5922;53.734;10.258;2023-05-10T07:42:01;4.67;;;4.20;;
11731;SDS011;5922;53.734;10.258;2023-05-10T07:44:29;10.83;;;4.70;;
11731;SDS011;5922;53.734;10.258;2023-05-10T07:46:56;6.67;;;4.20;;
11731;SDS011;5922;53.734;10.258;2023-05-10T07:49:25;6.77;;;4.40;;
11731;SDS011;5922;53.734;10.258;2023-05-10T07:51:52;5.90;;;4.17;;
11731;SDS011;5922;53.734;10.258;2023-05-10T07:54:20;5.33;;;4.43;;
11731;SDS011;5922;53.734;10.258;2023-05-10T07:56:47;5.27;;;4.10;;
11731;SDS011;5922;53.734;10.258;2023-05-10T07:59:14;6.17;;;4.23;;
11731;SDS011;5922;53.734;10.258;2023-05-10T08:01:42;5.03;;;4.30;;
11731;SDS011;5922;53.734;10.258;2023-05-10T08:04:10;6.97;;;4.10;;
11731;SDS011;5922;53.734;10.258;2023-05-10T08:06:39;5.37;;;4.37;;
11731;SDS011;5922;53.734;10.258;2023-05-10T08:09:06;8.87;;;4.10;;
11731;SDS011;5922;53.734;10.258;2023-05-10T08:11:34;8.13;;;4.40;;
11731;SDS011;5922;53.734;10.258;2023-05-10T08:14:01;7.27;;;4.63;;
11731;SDS011;5922;53.734;10.258;2023-05-10T08:16:29;5.70;;;3.80;;
11731;SDS011;5922;53.734;10.258;2023-05-10T08:18:57;5.37;;;4.13;;
11731;SDS011;5922;53.734;10.258;2023-05-10T08:21:24;7.50;;;4.30;;
11731;SDS011;5922;53.734;10.258;2023-05-10T08:23:53;5.10;;;4.20;;
11731;SDS011;5922;53.734;10.258;2023-05-10T08:26:20;6.07;;;4.30;;
11731;SDS011;5922;53.734;10.258;2023-05-10T08:28:48;5.73;;;3.73;;
11731;SDS011;5922;53.734;10.258;2023-05-10T08:31:15;4.30;;;3.70;;
11731;SDS011;5922;53.734;10.258;2023-05-10T08:33:43;7.73;;;4.50;;
11731;SDS011;5922;53.734;10.258;2023-05-10T08:36:10;4.67;;;4.17;;
11731;SDS011;5922;53.734;10.258;2023-05-10T08:38:39;5.13;;;4.13;;
11731;SDS011;5922;53.734;10.258;2023-05-10T08:41:07;4.07;;;3.70;;
11731;SDS011;5922;53.734;10.258;2023-05-10T08:43:35;8.33;;;4.23;;
11731;SDS011;5922;53.734;10.258;2023-05-10T08:46:02;9.63;;;4.20;;
11731;SDS011;5922;53.734;10.258;2023-05-10T08:48:31;4.37;;;3.97;;
11731;SDS011;5922;53.734;10.258;2023-05-10T08:51:00;5.57;;;4.43;;
11731;SDS011;5922;53.734;10.258;2023-05-10T08:53:28;4.40;;;4.00;;
11731;SDS011;5922;53.734;10.258;2023-05-10T08:55:57;4.90;;;4.40;;
11731;SDS011;5922;53.734;10.258;2023-05-10T08:58:26;4.93;;;4.33;;
11731;SDS011;5922;53.734;10.258;2023-05-10T09:00:53;4.53;;;4.17;;
11731;SDS011;5922;53.734;10.258;2023-05-10T09:03:21;5.40;;;4.87;;
11731;SDS011;5922;53.734;10.258;2023-05-10T09:05:48;7.80;;;3.87;;
11731;SDS011;5922;53.734;10.258;2023-05-10T09:08:15;5.93;;;4.10;;
11731;SDS011;5922;53.734;10.258;2023-05-10T09:10:43;5.07;;;4.60;;
11731;SDS011;5922;53.734;10.258;2023-05-10T09:13:12;5.23;;;4.57;;
11731;SDS011;5922;53.734;10.258;2023-05-10T09:15:43;4.97;;;4.37;;
11731;SDS011;5922;53.734;10.258;2023-05-10T09:18:10;5.00;;;4.37;;
11731;SDS011;5922;53.734;10.258;2023-05-10T09:20:38;5.50;;;4.30;;
11731;SDS011;5922;53.734;10.258;2023-05-10T09:23:05;4.70;;;4.27;;
11731;SDS011;5922;53.734;10.258;2023-05-10T09:25:32;6.00;;;4.80;;
11731;SDS011;5922;53.734;10.258;2023-05-10T09:28:00;5.50;;;4.30;;
11731;SDS011;5922;53.734;10.258;2023-05-10T09:30:32;5.50;;;4.50;;
11731;SDS011;5922;53.734;10.258;2023-05-10T09:33:01;5.70;;;4.57;;
11731;SDS011;5922;53.734;10.258;2023-05-10T09:35:29;5.10;;;4.60;;
11731;SDS011;5922;53.734;10.258;2023-05-10T09:37:57;5.20;;;4.07;;
11731;SDS011;5922;53.734;10.258;2023-05-10T09:40:25;4.27;;;3.93;;
11731;SDS011;5922;53.734;10.258;2023-05-10T09:42:55;4.70;;;4.07;;
11731;SDS011;5922;53.734;10.258;2023-05-10T09:45:23;5.17;;;3.80;;
11731;SDS011;5922;53.734;10.258;2023-05-10T09:47:51;4.83;;;4.07;;
11731;SDS011;5922;53.734;10.258;2023-05-10T09:50:20;6.40;;;4.47;;
11731;SDS011;5922;53.734;10.258;2023-05-10T09:52:48;6.43;;;4.20;;
11731;SDS011;5922;53.734;10.258;2023-05-10T09:55:16;8.77;;;4.33;;
11731;SDS011;5922;53.734;10.258;2023-05-10T09:57:43;5.57;;;4.40;;
11731;SDS011;5922;53.734;10.258;2023-05-10T10:00:11;5.57;;;4.20;;
11731;SDS011;5922;53.734;10.258;2023-05-10T10:02:44;8.10;;;4.53;;
11731;SDS011;5922;53.734;10.258;2023-05-10T10:05:11;4.30;;;3.90;;
11731;SDS011;5922;53.734;10.258;2023-05-10T10:07:40;7.77;;;4.20;;
11731;SDS011;5922;53.734;10.258;2023-05-10T10:10:08;7.70;;;4.40;;
11731;SDS011;5922;53.734;10.258;2023-05-10T10:12:38;9.90;;;4.13;;
11731;SDS011;5922;53.734;10.258;2023-05-10T10:15:06;6.90;;;4.53;;
11731;SDS011;5922;53.734;10.258;2023-05-10T10:17:34;8.27;;;4.23;;
11731;SDS011;5922;53.734;10.258;2023-05-10T10:20:02;5.80;;;4.23;;
11731;SDS011;5922;53.734;10.258;2023-05-10T10:22:33;7.90;;;4.40;;
11731;SDS011;5922;53.734;10.258;2023-05-10T10:25:07;5.80;;;4.27;;
11731;SDS011;5922;53.734;10.258;2023-05-10T10:27:37;7.43;;;4.70;;
11731;SDS011;5922;53.734;10.258;2023-05-10T10:30:12;4.67;;;4.20;;
11731;SDS011;5922;53.734;10.258;2023-05-10T10:32:50;7.07;;;4.80;;
11731;SDS011;5922;53.734;10.258;2023-05-10T10:35:25;7.43;;;4.33;;
11731;SDS011;5922;53.734;10.258;2023-05-10T10:37:52;8.57;;;4.90;;
11731;SDS011;5922;53.734;10.258;2023-05-10T10:40:31;6.80;;;4.63;;
11731;SDS011;5922;53.734;10.258;2023-05-10T10:43:20;6.47;;;4.50;;
11731;SDS011;5922;53.734;10.258;2023-05-10T10:45:48;6.37;;;5.37;;
11731;SDS011;5922;53.734;10.258;2023-05-10T10:48:35;9.30;;;4.80;;
11731;SDS011;5922;53.734;10.258;2023-05-10T10:51:05;6.57;;;5.07;;
11731;SDS011;5922;53.734;10.258;2023-05-10T10:53:36;7.60;;;5.07;;
11731;SDS011;5922;53.734;10.258;2023-05-10T10:56:10;5.20;;;4.70;;
11731;SDS011;5922;53.734;10.258;2023-05-10T10:58:39;6.67;;;4.83;;
11731;SDS011;5922;53.734;10.258;2023-05-10T11:01:13;6.80;;;5.57;;
11731;SDS011;5922;53.734;10.258;2023-05-10T11:03:41;6.57;;;4.90;;
11731;SDS011;5922;53.734;10.258;2023-05-10T11:06:08;6.60;;;4.80;;
11731;SDS011;5922;53.734;10.258;2023-05-10T11:08:41;7.63;;;4.80;;
11731;SDS011;5922;53.734;10.258;2023-05-10T11:11:15;5.10;;;4.60;;
11731;SDS011;5922;53.734;10.258;2023-05-10T11:13:43;6.30;;;4.90;;
11731;SDS011;5922;53.734;10.258;2023-05-10T11:16:18;6.30;;;4.87;;
11731;SDS011;5922;53.734;10.258;2023-05-10T11:19:01;6.57;;;5.30;;
11731;SDS011;5922;53.734;10.258;2023-05-10T11:21:31;7.97;;;5.93;;
11731;SDS011;5922;53.734;10.258;2023-05-10T11:23:59;6.43;;;5.83;;
11731;SDS011;5922;53.734;10.258;2023-05-10T11:26:35;10.20;;;6.20;;
11731;SDS011;5922;53.734;10.258;2023-05-10T11:29:20;7.77;;;6.60;;
11731;SDS011;5922;53.734;10.258;2023-05-10T11:31:52;8.30;;;6.73;;
11731;SDS011;5922;53.734;10.258;2023-05-10T11:34:46;6.80;;;6.10;;
11731;SDS011;5922;53.734;10.258;2023-05-10T11:37:17;7.60;;;6.67;;
11731;SDS011;5922;53.734;10.258;2023-05-10T11:39:54;8.73;;;7.10;;
11731;SDS011;5922;53.734;10.258;2023-05-10T11:42:23;8.30;;;6.77;;
11731;SDS011;5922;53.734;10.258;2023-05-10T11:44:52;7.53;;;6.80;;
11731;SDS011;5922;53.734;10.258;2023-05-10T11:47:19;8.73;;;7.00;;
11731;SDS011;5922;53.734;10.258;2023-05-10T11:49:47;8.70;;;6.70;;
11731;SDS011;5922;53.734;10.258;2023-05-10T11:52:15;7.73;;;6.90;;
11731;SDS011;5922;53.734;10.258;2023-05-10T11:54:53;7.07;;;6.47;;
11731;SDS011;5922;53.734;10.258;2023-05-10T11:57:25;7.30;;;6.60;;
11731;SDS011;5922;53.734;10.258;2023-05-10T12:00:01;10.47;;;6.77;;
11731;SDS011;5922;53.734;10.258;2023-05-10T12:02:30;7.63;;;6.53;;
11731;SDS011;5922;53.734;10.258;2023-05-10T12:04:59;7.70;;;7.00;;
11731;SDS011;5922;53.734;10.258;2023-05-10T12:07:31;7.80;;;7.00;;
11731;SDS011;5922;53.734;10.258;2023-05-10T12:10:09;8.77;;;6.93;;
11731;SDS011;5922;53.734;10.258;2023-05-10T12:12:41;7.50;;;6.70;;
11731;SDS011;5922;53.734;10.258;2023-05-10T12:15:12;8.43;;;7.00;;
11731;SDS011;5922;53.734;10.258;2023-05-10T12:17:40;7.97;;;7.23;;
11731;SDS011;5922;53.734;10.258;2023-05-10T12:20:14;7.70;;;7.00;;
11731;SDS011;5922;53.734;10.258;2023-05-10T12:22:43;8.47;;;7.57;;
11731;SDS011;5922;53.734;10.258;2023-05-10T12:25:11;7.90;;;7.10;;
11731;SDS011;5922;53.734;10.258;2023-05-10T12:27:38;8.07;;;7.13;;
11731;SDS011;5922;53.734;10.258;2023-05-10T12:30:10;8.80;;;7.40;;
11731;SDS011;5922;53.734;10.258;2023-05-10T12:32:39;9.30;;;7.63;;
11731;SDS011;5922;53.734;10.258;2023-05-10T12:35:07;11.07;;;6.87;;
11731;SDS011;5922;53.734;10.258;2023-05-10T12:37:35;8.90;;;7.13;;
11731;SDS011;5922;53.734;10.258;2023-05-10T12:40:05;8.20;;;7.30;;
11731;SDS011;5922;53.734;10.258;2023-05-10T12:42:33;7.90;;;7.17;;
11731;SDS011;5922;53.734;10.258;2023-05-10T12:45:02;7.93;;;7.23;;
11731;SDS011;5922;53.734;10.258;2023-05-10T12:47:32;9.07;;;7.13;;
11731;SDS011;5922;53.734;10.258;2023-05-10T12:50:00;9.00;;;6.50;;
11731;SDS011;5922;53.734;10.258;2023-05-10T12:52:27;9.43;;;6.37;;
11731;SDS011;5922;53.734;10.258;2023-05-10T12:54:55;6.17;;;5.57;;
11731;SDS011;5922;53.734;10.258;2023-05-10T12:57:22;7.80;;;6.67;;
11731;SDS011;5922;53.734;10.258;2023-05-10T12:59:50;6.90;;;6.20;;
11731;SDS011;5922;53.734;10.258;2023-05-10T13:02:17;6.80;;;6.20;;
11731;SDS011;5922;53.734;10.258;2023-05-10T13:04:47;6.93;;;6.33;;
11731;SDS011;5922;53.734;10.258;2023-05-10T13:07:17;6.47;;;5.63;;
11731;SDS011;5922;53.734;10.258;2023-05-10T13:09:44;8.43;;;6.30;;
11731;SDS011;5922;53.734;10.258;2023-05-10T13:12:11;7.57;;;6.60;;
11731;SDS011;5922;53.734;10.258;2023-05-10T13:14:39;7.47;;;6.33;;
11731;SDS011;5922;53.734;10.258;2023-05-10T13:17:09;6.63;;;6.03;;
11731;SDS011;5922;53.734;10.258;2023-05-10T13:19:40;7.00;;;6.40;;
11731;SDS011;5922;53.734;10.258;2023-05-10T13:22:09;6.57;;;5.93;;
11731;SDS011;5922;53.734;10.258;2023-05-10T13:24:42;7.23;;;6.03;;
11731;SDS011;5922;53.734;10.258;2023-05-10T13:27:14;8.40;;;6.70;;
11731;SDS011;5922;53.734;10.258;2023-05-10T13:29:41;7.00;;;6.30;;
11731;SDS011;5922;53.734;10.258;2023-05-10T13:32:11;6.87;;;6.13;;
11731;SDS011;5922;53.734;10.258;2023-05-10T13:34:39;6.57;;;5.97;;
11731;SDS011;5922;53.734;10.258;2023-05-10T13:37:08;6.30;;;5.70;;
11731;SDS011;5922;53.734;10.258;2023-05-10T13:39:35;7.70;;;6.50;;
11731;SDS011;5922;53.734;10.258;2023-05-10T13:42:03;6.77;;;5.47;;
11731;SDS011;5922;53.734;10.258;2023-05-10T13:44:30;6.10;;;5.30;;
11731;SDS011;5922;53.734;10.258;2023-05-10T13:46:58;6.13;;;5.53;;
11731;SDS011;5922;53.734;10.258;2023-05-10T13:49:26;6.83;;;6.13;;
11731;SDS011;5922;53.734;10.258;2023-05-10T13:51:53;7.03;;;5.50;;
11731;SDS011;5922;53.734;10.258;2023-05-10T13:54:24;5.80;;;5.20;;
11731;SDS011;5922;53.734;10.258;2023-05-10T13:56:54;5.70;;;5.10;;
11731;SDS011;5922;53.734;10.258;2023-05-10T13:59:21;5.60;;;5.10;;
11731;SDS011;5922;53.734;10.258;2023-05-10T14:02:06;7.07;;;5.30;;
11731;SDS011;5922;53.734;10.258;2023-05-10T14:04:38;4.80;;;4.40;;
11731;SDS011;5922;53.734;10.258;2023-05-10T14:08:14;5.73;;;4.70;;
11731;SDS011;5922;53.734;10.258;2023-05-10T14:38:14;4.77;;;4.00;;
11731;SDS011;5922;53.734;10.258;2023-05-10T14:40:41;3.97;;;3.67;;
11731;SDS011;5922;53.734;10.258;2023-05-10T14:43:09;4.37;;;3.13;;
11731;SDS011;5922;53.734;10.258;2023-05-10T14:45:36;3.67;;;3.37;;
11731;SDS011;5922;53.734;10.258;2023-05-10T14:48:03;4.17;;;3.80;;
11731;SDS011;5922;53.734;10.258;2023-05-10T14:50:30;4.50;;;3.60;;
11731;SDS011;5922;53.734;10.258;2023-05-10T14:52:58;4.20;;;3.80;;
11731;SDS011;5922;53.734;10.258;2023-05-10T14:55:26;5.43;;;4.00;;
11731;SDS011;5922;53.734;10.258;2023-05-10T14:57:53;4.70;;;4.10;;
11731;SDS011;5922;53.734;10.258;2023-05-10T15:00:21;4.80;;;4.30;;
11731;SDS011;5922;53.734;10.258;2023-05-10T15:02:48;4.27;;;3.90;;
11731;SDS011;5922;53.734;10.258;2023-05-10T15:05:15;4.10;;;3.70;;
11731;SDS011;5922;53.734;10.258;2023-05-10T15:07:43;4.17;;;3.77;;
11731;SDS011;5922;53.734;10.258;2023-05-10T15:10:10;6.23;;;3.60;;
11731;SDS011;5922;53.734;10.258;2023-05-10T15:12:40;4.33;;;3.93;;
11731;SDS011;5922;53.734;10.258;2023-05-10T15:15:07;4.03;;;3.70;;
11731;SDS011;5922;53.734;10.258;2023-05-10T15:17:34;4.80;;;4.40;;
11731;SDS011;5922;53.734;10.258;2023-05-10T15:20:02;4.70;;;4.30;;
11731;SDS011;5922;53.734;10.258;2023-05-10T15:22:29;4.23;;;3.83;;
11731;SDS011;5922;53.734;10.258;2023-05-10T15:24:57;6.97;;;4.57;;
11731;SDS011;5922;53.734;10.258;2023-05-10T15:27:24;6.80;;;4.13;;
11731;SDS011;5922;53.734;10.258;2023-05-10T15:29:53;4.13;;;3.80;;